Aérodrome :
LOGIN :

S'inscrire | Disclaimer

   EN    FR    IT 

 










Légende :    VFR   VFR Marginal   IFR   IFR Intensif   IFR Très Intensif
Visi : 
Plafond : 
>= 8 km
>= 3000ft
5 à 8 km
1000 à 3000 ft
1500m à 5 km
500 à 1000 ft
800 à 1500m
200 à 500 ft
< 800m
< 200 ft
Symboles :   Orages  Brouillard  Fortes neiges  Fortes précipitations  Vent > 20 kt
SIGMETs :   Divers  Orages  Givrage  Turbulence  Onde Orograph.  Cendres Volcan.






- Altitude de l'aérodrome : 794 ft


LKCV - Čáslav Air Base

DERNIER METAR :
  • 280830Z 30014KT 9999 BKN020 OVC030 03/M01 Q1012 NOSIG RMK WHT WHT

METARs EXPIRÉS :
  • 280800Z 28010KT 9999 BKN015 02/M01 Q1012 NOSIG RMK WHT WHT
  • 280730Z 29014KT 9999 BKN018 02/M01 Q1011 NOSIG RMK WHT WHT
  • 280642Z 30020KT 9999 SCT015 01/M01 Q1010 RMK BLU
  • 280630Z 30015KT 9999 BKN013 02/M01 Q1009 NOSIG RMK GRN GRN
  • 280600Z 30017KT 9999 SCT015 OVC023 02/M01 Q1008 NOSIG RMK WHT WHT

TAF TAF LKCV
Valide du 28 à 06h jusqu'au 29 à 06h UTC


280500Z 2806/2906 30012KT 9999 SCT020 BKN030
TEMPO 2806/2810 30014G26KT 6000 SHRASN BKN015 OVC020
TEMPO 2810/2817 29014G26KT 8000 SHRA BKN020
BECMG 2820/2823 17008KT CAVOK



MET'MAP, la Météo Aéronautique d'un coup d'oeil ! - Copyright ORBIFLY Décembre 2007 - Disclaimer

ORBIFLY MET'MAP TEAM :

Programmation & Développement : Alexandra Zaïnal
Sur une idée originale de : Baudouin d'Aumeries
Assistance à la programmation : Marc-Olivier Méhu
Soutien technique & logistique : Manuel Goepfert

Contact : metmap@orbifly.com




SOURCES & CREDITS :

   NOAA